sensor_id;sensor_type;location;lat;lon;timestamp;pressure;altitude;pressure_sealevel;temperature;humidity
74621;BME280;64861;47.546;19.254;2023-04-24T00:00:01;98496.53;;;20.81;47.40
74621;BME280;64861;47.546;19.254;2023-04-24T00:02:30;98497.34;;;20.82;47.26
74621;BME280;64861;47.546;19.254;2023-04-24T00:04:56;98495.72;;;20.81;47.55
74621;BME280;64861;47.546;19.254;2023-04-24T00:07:22;98486.28;;;20.78;46.94
74621;BME280;64861;47.546;19.254;2023-04-24T00:09:47;98490.13;;;20.76;47.10
74621;BME280;64861;47.546;19.254;2023-04-24T00:12:13;98482.81;;;20.78;47.23
74621;BME280;64861;47.546;19.254;2023-04-24T00:14:39;98488.31;;;20.76;46.95
74621;BME280;64861;47.546;19.254;2023-04-24T00:17:04;98481.34;;;20.75;47.26
74621;BME280;64861;47.546;19.254;2023-04-24T00:19:30;98478.06;;;20.73;47.22
74621;BME280;64861;47.546;19.254;2023-04-24T00:21:55;98482.34;;;20.74;47.43
74621;BME280;64861;47.546;19.254;2023-04-24T00:24:21;98479.84;;;20.73;47.18
74621;BME280;64861;47.546;19.254;2023-04-24T00:26:46;98478.88;;;20.74;47.07
74621;BME280;64861;47.546;19.254;2023-04-24T00:29:12;98483.53;;;20.72;47.24
74621;BME280;64861;47.546;19.254;2023-04-24T00:31:37;98476.59;;;20.71;47.31
74621;BME280;64861;47.546;19.254;2023-04-24T00:34:03;98482.72;;;20.71;47.21
74621;BME280;64861;47.546;19.254;2023-04-24T00:36:30;98477.41;;;20.71;47.20
74621;BME280;64861;47.546;19.254;2023-04-24T00:38:56;98477.59;;;20.70;47.21
74621;BME280;64861;47.546;19.254;2023-04-24T00:41:21;98472.44;;;20.68;47.13
74621;BME280;64861;47.546;19.254;2023-04-24T00:43:47;98479.41;;;20.69;47.42
74621;BME280;64861;47.546;19.254;2023-04-24T00:46:14;98485.72;;;20.68;47.18
74621;BME280;64861;47.546;19.254;2023-04-24T00:48:40;98482.25;;;20.68;47.43
74621;BME280;64861;47.546;19.254;2023-04-24T00:51:06;98480.63;;;20.67;47.32
74621;BME280;64861;47.546;19.254;2023-04-24T00:53:31;98478.78;;;20.67;47.53
74621;BME280;64861;47.546;19.254;2023-04-24T00:55:57;98477.97;;;20.67;47.29
74621;BME280;64861;47.546;19.254;2023-04-24T00:58:23;98471.19;;;20.64;47.43
74621;BME280;64861;47.546;19.254;2023-04-24T01:00:50;98473.00;;;20.63;47.56
74621;BME280;64861;47.546;19.254;2023-04-24T01:03:20;98475.66;;;20.63;47.28
74621;BME280;64861;47.546;19.254;2023-04-24T01:05:47;98470.72;;;20.60;47.19
74621;BME280;64861;47.546;19.254;2023-04-24T01:08:13;98469.69;;;20.61;47.29
74621;BME280;64861;47.546;19.254;2023-04-24T01:10:40;98461.75;;;20.61;47.46
74621;BME280;64861;47.546;19.254;2023-04-24T01:13:07;98470.06;;;20.58;47.22
74621;BME280;64861;47.546;19.254;2023-04-24T01:15:34;98467.25;;;20.60;47.27
74621;BME280;64861;47.546;19.254;2023-04-24T01:17:59;98470.06;;;20.58;47.45
74621;BME280;64861;47.546;19.254;2023-04-24T01:20:25;98477.00;;;20.59;47.37
74621;BME280;64861;47.546;19.254;2023-04-24T01:22:52;98474.56;;;20.58;47.64
74621;BME280;64861;47.546;19.254;2023-04-24T01:25:18;98471.09;;;20.57;47.40
74621;BME280;64861;47.546;19.254;2023-04-24T01:27:44;98469.44;;;20.56;47.42
74621;BME280;64861;47.546;19.254;2023-04-24T01:30:10;98472.09;;;20.56;47.48
74621;BME280;64861;47.546;19.254;2023-04-24T01:32:36;98475.22;;;20.60;47.67
74621;BME280;64861;47.546;19.254;2023-04-24T01:35:03;98469.25;;;20.58;47.43
74621;BME280;64861;47.546;19.254;2023-04-24T01:37:28;98461.47;;;20.56;47.73
74621;BME280;64861;47.546;19.254;2023-04-24T01:39:54;98466.78;;;20.56;47.51
74621;BME280;64861;47.546;19.254;2023-04-24T01:42:20;98465.13;;;20.55;47.53
74621;BME280;64861;47.546;19.254;2023-04-24T01:44:45;98457.16;;;20.55;47.46
74621;BME280;64861;47.546;19.254;2023-04-24T01:47:12;98458.34;;;20.53;47.44
74621;BME280;64861;47.546;19.254;2023-04-24T01:49:38;98452.88;;;20.54;47.50
74621;BME280;64861;47.546;19.254;2023-04-24T01:52:04;98444.09;;;20.54;47.71
74621;BME280;64861;47.546;19.254;2023-04-24T01:54:29;98440.59;;;20.53;47.37
74621;BME280;64861;47.546;19.254;2023-04-24T01:56:55;98442.59;;;20.51;47.37
74621;BME280;64861;47.546;19.254;2023-04-24T01:59:21;98447.22;;;20.49;47.58
74621;BME280;64861;47.546;19.254;2023-04-24T02:01:48;98451.56;;;20.50;47.50
74621;BME280;64861;47.546;19.254;2023-04-24T02:04:14;98446.25;;;20.50;47.67
74621;BME280;64861;47.546;19.254;2023-04-24T02:06:40;98442.78;;;20.50;47.67
74621;BME280;64861;47.546;19.254;2023-04-24T02:09:06;98444.56;;;20.49;47.42
74621;BME280;64861;47.546;19.254;2023-04-24T02:11:31;98436.81;;;20.48;47.74
74621;BME280;64861;47.546;19.254;2023-04-24T02:13:57;98434.81;;;20.50;47.79
74621;BME280;64861;47.546;19.254;2023-04-24T02:16:23;98432.31;;;20.48;47.70
74621;BME280;64861;47.546;19.254;2023-04-24T02:18:48;98428.84;;;20.48;47.77
74621;BME280;64861;47.546;19.254;2023-04-24T02:21:13;98414.75;;;20.47;47.62
74621;BME280;64861;47.546;19.254;2023-04-24T02:23:39;98417.41;;;20.47;47.63
74621;BME280;64861;47.546;19.254;2023-04-24T02:26:05;98412.09;;;20.47;47.63
74621;BME280;64861;47.546;19.254;2023-04-24T02:28:31;98408.81;;;20.45;47.58
74621;BME280;64861;47.546;19.254;2023-04-24T02:30:56;98404.50;;;20.44;47.90
74621;BME280;64861;47.546;19.254;2023-04-24T02:33:21;98374.50;;;20.44;47.84
74621;BME280;64861;47.546;19.254;2023-04-24T02:35:47;98357.75;;;20.43;47.92
74621;BME280;64861;47.546;19.254;2023-04-24T02:38:13;98353.44;;;20.42;47.60
74621;BME280;64861;47.546;19.254;2023-04-24T02:40:38;98356.75;;;20.44;47.64
74621;BME280;64861;47.546;19.254;2023-04-24T02:43:04;98356.09;;;20.42;47.82
74621;BME280;64861;47.546;19.254;2023-04-24T02:45:29;98358.75;;;20.42;47.69
74621;BME280;64861;47.546;19.254;2023-04-24T02:47:55;98354.44;;;20.41;47.64
74621;BME280;64861;47.546;19.254;2023-04-24T02:50:20;98351.78;;;20.41;47.77
74621;BME280;64861;47.546;19.254;2023-04-24T02:52:45;98345.69;;;20.40;47.59
74621;BME280;64861;47.546;19.254;2023-04-24T02:55:12;98345.69;;;20.40;47.81
74621;BME280;64861;47.546;19.254;2023-04-24T02:57:37;98341.34;;;20.39;47.77
74621;BME280;64861;47.546;19.254;2023-04-24T03:00:03;98344.84;;;20.40;47.89
74621;BME280;64861;47.546;19.254;2023-04-24T03:02:32;98342.19;;;20.40;48.06
74621;BME280;64861;47.546;19.254;2023-04-24T03:04:57;98346.66;;;20.39;48.01
74621;BME280;64861;47.546;19.254;2023-04-24T03:07:23;98344.84;;;20.40;47.82
74621;BME280;64861;47.546;19.254;2023-04-24T03:09:49;98343.38;;;20.37;47.77
74621;BME280;64861;47.546;19.254;2023-04-24T03:12:14;98345.22;;;20.37;47.88
74621;BME280;64861;47.546;19.254;2023-04-24T03:14:42;98350.53;;;20.37;48.02
74621;BME280;64861;47.546;19.254;2023-04-24T03:17:07;98360.13;;;20.38;47.99
74621;BME280;64861;47.546;19.254;2023-04-24T03:19:33;98358.50;;;20.37;48.03
74621;BME280;64861;47.546;19.254;2023-04-24T03:21:58;98358.50;;;20.37;48.22
74621;BME280;64861;47.546;19.254;2023-04-24T03:24:23;98358.66;;;20.35;48.13
74621;BME280;64861;47.546;19.254;2023-04-24T03:26:49;98355.19;;;20.35;48.03
74621;BME280;64861;47.546;19.254;2023-04-24T03:29:15;98356.00;;;20.35;47.99
74621;BME280;64861;47.546;19.254;2023-04-24T03:31:40;98367.78;;;20.33;48.32
74621;BME280;64861;47.546;19.254;2023-04-24T03:34:06;98358.03;;;20.33;48.08
74621;BME280;64861;47.546;19.254;2023-04-24T03:36:31;98355.38;;;20.33;48.15
74621;BME280;64861;47.546;19.254;2023-04-24T03:38:57;98353.34;;;20.35;48.23
74621;BME280;64861;47.546;19.254;2023-04-24T03:41:22;98348.84;;;20.36;48.09
74621;BME280;64861;47.546;19.254;2023-04-24T03:43:48;98348.84;;;20.36;47.88
74621;BME280;64861;47.546;19.254;2023-04-24T03:46:13;98355.38;;;20.33;48.21
74621;BME280;64861;47.546;19.254;2023-04-24T03:48:40;98352.72;;;20.33;48.24
74621;BME280;64861;47.546;19.254;2023-04-24T03:51:05;98348.59;;;20.31;47.97
74621;BME280;64861;47.546;19.254;2023-04-24T03:53:31;98345.75;;;20.32;48.12
74621;BME280;64861;47.546;19.254;2023-04-24T03:55:56;98350.25;;;20.32;48.10
74621;BME280;64861;47.546;19.254;2023-04-24T03:58:22;98351.06;;;20.32;48.14
74621;BME280;64861;47.546;19.254;2023-04-24T04:00:47;98357.38;;;20.31;48.22
74621;BME280;64861;47.546;19.254;2023-04-24T04:03:13;98352.72;;;20.33;48.09
74621;BME280;64861;47.546;19.254;2023-04-24T04:05:39;98352.38;;;20.36;48.27
74621;BME280;64861;47.546;19.254;2023-04-24T04:08:05;98351.50;;;20.36;48.17
74621;BME280;64861;47.546;19.254;2023-04-24T04:10:31;98355.00;;;20.36;48.13
74621;BME280;64861;47.546;19.254;2023-04-24T04:12:56;98352.38;;;20.36;48.33
74621;BME280;64861;47.546;19.254;2023-04-24T04:15:22;98347.06;;;20.36;48.28
74621;BME280;64861;47.546;19.254;2023-04-24T04:17:47;98349.06;;;20.34;48.17
74621;BME280;64861;47.546;19.254;2023-04-24T04:20:12;98347.41;;;20.33;48.16
74621;BME280;64861;47.546;19.254;2023-04-24T04:22:38;98352.53;;;20.35;48.42
74621;BME280;64861;47.546;19.254;2023-04-24T04:25:04;98355.19;;;20.35;48.55
74621;BME280;64861;47.546;19.254;2023-04-24T04:27:30;98352.97;;;20.38;48.18
74621;BME280;64861;47.546;19.254;2023-04-24T04:30:03;98351.16;;;20.39;48.58
74621;BME280;64861;47.546;19.254;2023-04-24T04:32:32;98359.09;;;20.39;48.45
74621;BME280;64861;47.546;19.254;2023-04-24T04:34:58;98356.66;;;20.37;48.22
74621;BME280;64861;47.546;19.254;2023-04-24T04:37:28;98359.31;;;20.37;48.21
74621;BME280;64861;47.546;19.254;2023-04-24T04:39:54;98358.13;;;20.40;48.36
74621;BME280;64861;47.546;19.254;2023-04-24T04:42:19;98358.28;;;20.38;48.44
74621;BME280;64861;47.546;19.254;2023-04-24T04:44:45;98347.69;;;20.38;48.46
74621;BME280;64861;47.546;19.254;2023-04-24T04:47:10;98351.44;;;20.44;48.39
74621;BME280;64861;47.546;19.254;2023-04-24T04:49:37;98348.22;;;20.49;48.30
74621;BME280;64861;47.546;19.254;2023-04-24T04:52:03;98352.06;;;20.46;48.11
74621;BME280;64861;47.546;19.254;2023-04-24T04:54:29;98352.25;;;20.45;48.44
74621;BME280;64861;47.546;19.254;2023-04-24T04:56:54;98348.94;;;20.42;48.29
74621;BME280;64861;47.546;19.254;2023-04-24T04:59:20;98343.63;;;20.42;48.40
74621;BME280;64861;47.546;19.254;2023-04-24T05:01:46;98338.53;;;20.41;48.44
74621;BME280;64861;47.546;19.254;2023-04-24T05:04:11;98333.22;;;20.41;48.35
74621;BME280;64861;47.546;19.254;2023-04-24T05:06:37;98334.88;;;20.42;48.31
74621;BME280;64861;47.546;19.254;2023-04-24T05:09:02;98334.88;;;20.42;48.43
74621;BME280;64861;47.546;19.254;2023-04-24T05:11:28;98329.56;;;20.42;48.57
74621;BME280;64861;47.546;19.254;2023-04-24T05:13:55;98336.78;;;20.48;48.09
74621;BME280;64861;47.546;19.254;2023-04-24T05:16:20;98333.47;;;20.46;48.23
74621;BME280;64861;47.546;19.254;2023-04-24T05:18:46;98329.84;;;20.47;48.27
74621;BME280;64861;47.546;19.254;2023-04-24T05:21:12;98323.72;;;20.47;48.34
74621;BME280;64861;47.546;19.254;2023-04-24T05:23:37;98322.03;;;20.46;48.20
74621;BME280;64861;47.546;19.254;2023-04-24T05:26:03;98324.91;;;20.44;48.46
74621;BME280;64861;47.546;19.254;2023-04-24T05:28:28;98328.38;;;20.45;48.47
74621;BME280;64861;47.546;19.254;2023-04-24T05:30:54;98322.84;;;20.46;48.43
74621;BME280;64861;47.546;19.254;2023-04-24T05:33:21;98331.84;;;20.45;48.48
74621;BME280;64861;47.546;19.254;2023-04-24T05:35:47;98319.38;;;20.46;48.26
74621;BME280;64861;47.546;19.254;2023-04-24T05:38:13;98329.63;;;20.49;48.63
74621;BME280;64861;47.546;19.254;2023-04-24T05:40:40;98330.31;;;20.51;48.44
74621;BME280;64861;47.546;19.254;2023-04-24T05:43:05;98326.16;;;20.48;48.29
74621;BME280;64861;47.546;19.254;2023-04-24T05:45:31;98324.31;;;20.49;48.38
74621;BME280;64861;47.546;19.254;2023-04-24T05:47:56;98327.19;;;20.47;48.34
74621;BME280;64861;47.546;19.254;2023-04-24T05:50:22;98332.78;;;20.52;48.35
74621;BME280;64861;47.546;19.254;2023-04-24T05:52:47;98332.03;;;20.58;48.61
74621;BME280;64861;47.546;19.254;2023-04-24T05:55:13;98334.97;;;20.63;48.40
74621;BME280;64861;47.546;19.254;2023-04-24T05:57:39;98329.84;;;20.62;48.24
74621;BME280;64861;47.546;19.254;2023-04-24T06:00:05;98338.00;;;20.60;48.46
74621;BME280;64861;47.546;19.254;2023-04-24T06:02:31;98335.72;;;20.57;48.40
74621;BME280;64861;47.546;19.254;2023-04-24T06:04:58;98335.72;;;20.57;48.09
74621;BME280;64861;47.546;19.254;2023-04-24T06:07:25;98327.47;;;20.52;48.13
74621;BME280;64861;47.546;19.254;2023-04-24T06:09:53;98329.31;;;20.52;47.84
74621;BME280;64861;47.546;19.254;2023-04-24T06:12:19;98335.97;;;20.48;48.10
74621;BME280;64861;47.546;19.254;2023-04-24T06:14:44;98331.47;;;20.48;48.20
74621;BME280;64861;47.546;19.254;2023-04-24T06:17:10;98340.97;;;20.42;48.22
74621;BME280;64861;47.546;19.254;2023-04-24T06:19:35;98350.16;;;20.40;48.30
74621;BME280;64861;47.546;19.254;2023-04-24T06:22:01;98347.31;;;20.41;48.26
74621;BME280;64861;47.546;19.254;2023-04-24T06:24:30;98351.59;;;20.42;48.15
74621;BME280;64861;47.546;19.254;2023-04-24T06:26:55;98343.28;;;20.46;47.98
74621;BME280;64861;47.546;19.254;2023-04-24T06:29:22;98341.63;;;20.45;47.03
74621;BME280;64861;47.546;19.254;2023-04-24T06:31:48;98345.56;;;20.49;47.82
74621;BME280;64861;47.546;19.254;2023-04-24T06:34:13;98343.72;;;20.79;46.88
74621;BME280;64861;47.546;19.254;2023-04-24T06:36:39;98355.78;;;20.96;46.79
74621;BME280;64861;47.546;19.254;2023-04-24T06:39:04;98346.41;;;21.00;46.97
74621;BME280;64861;47.546;19.254;2023-04-24T06:41:30;98356.41;;;20.98;46.59
74621;BME280;64861;47.546;19.254;2023-04-24T06:43:55;98359.63;;;20.94;46.92
74621;BME280;64861;47.546;19.254;2023-04-24T06:46:21;98368.78;;;20.91;47.54
74621;BME280;64861;47.546;19.254;2023-04-24T06:48:49;98368.34;;;20.87;47.37
74621;BME280;64861;47.546;19.254;2023-04-24T06:51:15;98367.06;;;20.83;48.13
74621;BME280;64861;47.546;19.254;2023-04-24T06:53:42;98352.97;;;20.83;47.98
74621;BME280;64861;47.546;19.254;2023-04-24T06:56:08;98341.25;;;20.77;48.10
74621;BME280;64861;47.546;19.254;2023-04-24T06:58:33;98334.69;;;20.73;48.54
74621;BME280;64861;47.546;19.254;2023-04-24T07:00:59;98352.81;;;20.70;48.59
74621;BME280;64861;47.546;19.254;2023-04-24T07:03:24;98369.72;;;20.69;48.66
74621;BME280;64861;47.546;19.254;2023-04-24T07:05:50;98358.38;;;20.75;49.26
74621;BME280;64861;47.546;19.254;2023-04-24T07:08:16;98361.22;;;20.73;48.88
74621;BME280;64861;47.546;19.254;2023-04-24T07:10:43;98364.06;;;20.72;49.00
74621;BME280;64861;47.546;19.254;2023-04-24T07:13:10;98364.06;;;20.72;49.05
74621;BME280;64861;47.546;19.254;2023-04-24T07:15:35;98356.91;;;20.72;48.75
74621;BME280;64861;47.546;19.254;2023-04-24T07:18:01;98353.06;;;20.75;48.85
74621;BME280;64861;47.546;19.254;2023-04-24T07:20:26;98354.34;;;20.79;48.88
74621;BME280;64861;47.546;19.254;2023-04-24T07:22:52;98355.22;;;20.86;48.82
74621;BME280;64861;47.546;19.254;2023-04-24T07:25:19;98342.97;;;20.85;48.56
74621;BME280;64861;47.546;19.254;2023-04-24T07:27:45;98341.94;;;20.86;48.79
74621;BME280;64861;47.546;19.254;2023-04-24T07:30:11;98339.94;;;20.88;49.17
74621;BME280;64861;47.546;19.254;2023-04-24T07:32:36;98335.06;;;20.92;49.78
74621;BME280;64861;47.546;19.254;2023-04-24T07:35:02;98337.00;;;20.98;49.59
74621;BME280;64861;47.546;19.254;2023-04-24T07:37:28;98345.47;;;21.08;49.69
74621;BME280;64861;47.546;19.254;2023-04-24T07:39:54;98350.53;;;21.03;49.92
74621;BME280;64861;47.546;19.254;2023-04-24T07:42:19;98356.78;;;20.95;49.62
74621;BME280;64861;47.546;19.254;2023-04-24T07:44:45;98365.31;;;20.91;50.28
74621;BME280;64861;47.546;19.254;2023-04-24T07:47:13;98365.84;;;20.86;50.03
74621;BME280;64861;47.546;19.254;2023-04-24T07:49:41;98366.25;;;20.83;50.15
74621;BME280;64861;47.546;19.254;2023-04-24T07:52:07;98358.53;;;20.88;51.14
74621;BME280;64861;47.546;19.254;2023-04-24T07:54:32;98356.78;;;20.95;50.56
74621;BME280;64861;47.546;19.254;2023-04-24T07:56:58;98356.97;;;20.94;50.44
74621;BME280;64861;47.546;19.254;2023-04-24T07:59:23;98348.81;;;20.95;50.53
74621;BME280;64861;47.546;19.254;2023-04-24T08:01:49;98355.41;;;20.99;50.74
74621;BME280;64861;47.546;19.254;2023-04-24T08:04:14;98349.31;;;21.05;51.25
74621;BME280;64861;47.546;19.254;2023-04-24T08:06:40;98346.94;;;21.10;50.92
74621;BME280;64861;47.546;19.254;2023-04-24T08:09:05;98341.69;;;21.17;51.49
74621;BME280;64861;47.546;19.254;2023-04-24T08:11:31;98339.34;;;21.29;50.37
74621;BME280;64861;47.546;19.254;2023-04-24T08:13:57;98347.03;;;21.39;50.47
74621;BME280;64861;47.546;19.254;2023-04-24T08:16:22;98348.38;;;21.49;50.36
74621;BME280;64861;47.546;19.254;2023-04-24T08:18:49;98344.75;;;21.57;50.22
74621;BME280;64861;47.546;19.254;2023-04-24T08:21:15;98350.00;;;21.50;49.77
74621;BME280;64861;47.546;19.254;2023-04-24T08:23:42;98340.41;;;21.49;49.62
74621;BME280;64861;47.546;19.254;2023-04-24T08:26:08;98343.28;;;21.54;50.07
74621;BME280;64861;47.546;19.254;2023-04-24T08:28:34;98336.28;;;21.47;50.62
74621;BME280;64861;47.546;19.254;2023-04-24T08:30:59;98331.44;;;21.57;50.32
74621;BME280;64861;47.546;19.254;2023-04-24T08:33:25;98334.94;;;21.57;50.38
74621;BME280;64861;47.546;19.254;2023-04-24T08:35:50;98343.97;;;21.42;50.80
74621;BME280;64861;47.546;19.254;2023-04-24T08:38:16;98343.09;;;21.34;50.87
74621;BME280;64861;47.546;19.254;2023-04-24T08:40:42;98339.97;;;21.31;50.73
74621;BME280;64861;47.546;19.254;2023-04-24T08:43:08;98342.84;;;21.29;50.96
74621;BME280;64861;47.546;19.254;2023-04-24T08:45:35;98339.81;;;21.32;50.67
74621;BME280;64861;47.546;19.254;2023-04-24T08:48:02;98346.47;;;21.43;50.51
74621;BME280;64861;47.546;19.254;2023-04-24T08:50:28;98336.94;;;21.55;50.06
74621;BME280;64861;47.546;19.254;2023-04-24T08:52:54;98342.50;;;21.82;49.42
74621;BME280;64861;47.546;19.254;2023-04-24T08:55:20;98347.91;;;21.95;49.09
74621;BME280;64861;47.546;19.254;2023-04-24T08:57:51;98342.94;;;21.86;49.40
74621;BME280;64861;47.546;19.254;2023-04-24T09:00:19;98338.63;;;21.85;49.42
74621;BME280;64861;47.546;19.254;2023-04-24T09:02:47;98337.25;;;22.23;48.26
74621;BME280;64861;47.546;19.254;2023-04-24T09:05:14;98337.34;;;22.37;47.83
74621;BME280;64861;47.546;19.254;2023-04-24T09:07:44;98334.22;;;22.26;48.06
74621;BME280;64861;47.546;19.254;2023-04-24T09:10:10;98325.34;;;22.61;47.21
74621;BME280;64861;47.546;19.254;2023-04-24T09:12:36;98323.13;;;23.32;45.36
74621;BME280;64861;47.546;19.254;2023-04-24T09:15:02;98324.50;;;23.02;46.07
74621;BME280;64861;47.546;19.254;2023-04-24T09:17:30;98330.56;;;22.34;47.61
74621;BME280;64861;47.546;19.254;2023-04-24T09:19:56;98326.09;;;22.07;48.18
74621;BME280;64861;47.546;19.254;2023-04-24T09:22:21;98338.38;;;22.08;48.32
74621;BME280;64861;47.546;19.254;2023-04-24T09:24:47;98333.56;;;22.59;47.12
74621;BME280;64861;47.546;19.254;2023-04-24T09:27:13;98325.16;;;23.63;44.62
74621;BME280;64861;47.546;19.254;2023-04-24T09:29:54;98327.69;;;24.63;42.29
74621;BME280;64861;47.546;19.254;2023-04-24T09:32:24;98323.47;;;25.25;40.90
74621;BME280;64861;47.546;19.254;2023-04-24T09:35:12;98315.06;;;24.19;42.44
74621;BME280;64861;47.546;19.254;2023-04-24T09:37:44;98316.13;;;23.11;45.14
74621;BME280;64861;47.546;19.254;2023-04-24T09:42:46;98308.19;;;22.70;46.15
74621;BME280;64861;47.546;19.254;2023-04-24T09:45:12;98309.78;;;23.19;44.88
74621;BME280;64861;47.546;19.254;2023-04-24T09:47:38;98307.53;;;23.29;44.72
74621;BME280;64861;47.546;19.254;2023-04-24T09:50:12;98305.50;;;23.84;43.58
74621;BME280;64861;47.546;19.254;2023-04-24T09:53:03;98296.47;;;23.45;44.29
74621;BME280;64861;47.546;19.254;2023-04-24T09:55:29;98301.97;;;24.04;43.28
74621;BME280;64861;47.546;19.254;2023-04-24T09:57:59;98297.47;;;23.98;43.05
74621;BME280;64861;47.546;19.254;2023-04-24T10:00:31;98291.44;;;22.89;45.37
74621;BME280;64861;47.546;19.254;2023-04-24T10:03:01;98294.63;;;23.39;44.32
74621;BME280;64861;47.546;19.254;2023-04-24T10:05:29;98300.34;;;23.30;44.58
74621;BME280;64861;47.546;19.254;2023-04-24T10:08:18;98297.66;;;23.10;44.98
74621;BME280;64861;47.546;19.254;2023-04-24T10:10:46;98283.97;;;22.65;45.88
74621;BME280;64861;47.546;19.254;2023-04-24T10:13:13;98286.22;;;22.55;46.36
74621;BME280;64861;47.546;19.254;2023-04-24T10:15:41;98280.47;;;22.51;46.14
74621;BME280;64861;47.546;19.254;2023-04-24T10:18:08;98270.63;;;22.51;46.36
74621;BME280;64861;47.546;19.254;2023-04-24T10:20:37;98281.47;;;22.43;46.42
74621;BME280;64861;47.546;19.254;2023-04-24T10:23:03;98280.84;;;22.48;46.41
74621;BME280;64861;47.546;19.254;2023-04-24T10:25:31;98278.16;;;22.41;46.45
74621;BME280;64861;47.546;19.254;2023-04-24T10:27:58;98282.50;;;22.42;46.47
74621;BME280;64861;47.546;19.254;2023-04-24T10:30:30;98280.81;;;22.35;46.52
74621;BME280;64861;47.546;19.254;2023-04-24T10:33:00;98278.50;;;22.25;46.57
74621;BME280;64861;47.546;19.254;2023-04-24T10:35:26;98274.59;;;22.21;46.74
74621;BME280;64861;47.546;19.254;2023-04-24T10:38:00;98285.19;;;22.14;46.98
74621;BME280;64861;47.546;19.254;2023-04-24T10:40:30;98275.31;;;22.08;47.08
74621;BME280;64861;47.546;19.254;2023-04-24T10:42:56;98280.59;;;22.01;46.97
74621;BME280;64861;47.546;19.254;2023-04-24T10:45:23;98273.00;;;21.98;47.04
74621;BME280;64861;47.546;19.254;2023-04-24T10:50:27;98272.75;;;21.87;47.48
74621;BME280;64861;47.546;19.254;2023-04-24T10:53:05;98277.59;;;21.76;47.75
74621;BME280;64861;47.546;19.254;2023-04-24T10:55:47;98274.84;;;21.63;48.03
74621;BME280;64861;47.546;19.254;2023-04-24T10:58:13;98274.00;;;21.56;48.15
74621;BME280;64861;47.546;19.254;2023-04-24T11:00:41;98281.53;;;21.52;48.21
74621;BME280;64861;47.546;19.254;2023-04-24T11:03:30;98273.09;;;21.49;48.24
74621;BME280;64861;47.546;19.254;2023-04-24T11:08:26;98276.59;;;21.49;48.13
74621;BME280;64861;47.546;19.254;2023-04-24T11:11:03;98273.69;;;21.44;48.18
74621;BME280;64861;47.546;19.254;2023-04-24T11:16:27;98273.25;;;21.41;48.43
74621;BME280;64861;47.546;19.254;2023-04-24T11:19:09;98266.72;;;21.43;48.26
74621;BME280;64861;47.546;19.254;2023-04-24T11:24:39;98269.50;;;21.56;48.02
74621;BME280;64861;47.546;19.254;2023-04-24T11:27:06;98274.00;;;21.56;48.09
74621;BME280;64861;47.546;19.254;2023-04-24T11:35:14;98263.59;;;21.61;48.18
74621;BME280;64861;47.546;19.254;2023-04-24T11:37:42;98266.50;;;21.66;48.26
74621;BME280;64861;47.546;19.254;2023-04-24T11:40:12;98267.31;;;21.67;48.13
74621;BME280;64861;47.546;19.254;2023-04-24T11:42:43;98258.50;;;21.66;48.18
74621;BME280;64861;47.546;19.254;2023-04-24T11:45:11;98248.09;;;21.71;47.94
74621;BME280;64861;47.546;19.254;2023-04-24T11:47:37;98261.00;;;21.74;48.14
74621;BME280;64861;47.546;19.254;2023-04-24T11:50:03;98246.66;;;21.69;48.30
74621;BME280;64861;47.546;19.254;2023-04-24T11:52:31;98257.88;;;21.64;48.42
74621;BME280;64861;47.546;19.254;2023-04-24T11:54:56;98253.16;;;21.60;48.64
74621;BME280;64861;47.546;19.254;2023-04-24T11:57:24;98250.06;;;21.56;48.43
74621;BME280;64861;47.546;19.254;2023-04-24T11:59:51;98246.97;;;21.52;48.40
74621;BME280;64861;47.546;19.254;2023-04-24T12:02:24;98240.81;;;21.52;48.81
74621;BME280;64861;47.546;19.254;2023-04-24T12:04:51;98234.28;;;21.54;48.87
74621;BME280;64861;47.546;19.254;2023-04-24T12:07:17;98234.50;;;21.53;48.80
74621;BME280;64861;47.546;19.254;2023-04-24T12:09:54;98235.31;;;21.53;48.93
74621;BME280;64861;47.546;19.254;2023-04-24T12:12:20;98228.53;;;21.51;49.15
74621;BME280;64861;47.546;19.254;2023-04-24T12:14:52;98228.94;;;21.48;49.03
74621;BME280;64861;47.546;19.254;2023-04-24T12:17:17;98227.69;;;21.44;49.29
74621;BME280;64861;47.546;19.254;2023-04-24T12:19:48;98227.00;;;21.35;49.51
74621;BME280;64861;47.546;19.254;2023-04-24T12:22:15;98219.75;;;21.29;49.64
74621;BME280;64861;47.546;19.254;2023-04-24T12:25:03;98219.16;;;21.27;49.62
74621;BME280;64861;47.546;19.254;2023-04-24T12:27:34;98215.66;;;21.26;49.69
74621;BME280;64861;47.546;19.254;2023-04-24T12:30:01;98213.84;;;21.27;49.82
74621;BME280;64861;47.546;19.254;2023-04-24T12:32:26;98207.06;;;21.24;49.58
74621;BME280;64861;47.546;19.254;2023-04-24T12:34:53;98202.78;;;21.23;49.70
74621;BME280;64861;47.546;19.254;2023-04-24T12:37:19;98206.88;;;21.26;49.65
74621;BME280;64861;47.546;19.254;2023-04-24T12:42:34;98205.56;;;21.37;49.56
74621;BME280;64861;47.546;19.254;2023-04-24T12:45:05;98201.91;;;21.44;49.35
74621;BME280;64861;47.546;19.254;2023-04-24T12:47:32;98197.88;;;21.55;48.94
74621;BME280;64861;47.546;19.254;2023-04-24T12:49:58;98193.25;;;21.64;48.75
74621;BME280;64861;47.546;19.254;2023-04-24T12:52:25;98196.72;;;21.64;48.69
74621;BME280;64861;47.546;19.254;2023-04-24T12:54:53;98185.44;;;21.62;48.99
74621;BME280;64861;47.546;19.254;2023-04-24T12:57:18;98186.69;;;21.60;49.05
74621;BME280;64861;47.546;19.254;2023-04-24T12:59:44;98182.56;;;21.57;49.13
74621;BME280;64861;47.546;19.254;2023-04-24T13:02:11;98182.97;;;21.54;49.11
74621;BME280;64861;47.546;19.254;2023-04-24T13:04:36;98178.47;;;21.54;49.05
74621;BME280;64861;47.546;19.254;2023-04-24T13:07:02;98182.16;;;21.53;49.18
74621;BME280;64861;47.546;19.254;2023-04-24T13:09:28;98176.19;;;21.51;49.14